PILOTS ONLINE: 205    ATC ONLINE: 7

CBBC

Bella Bella (Campbell Island) Airport

Location

City Bella Bella
Country  Canada
Latitude 52° 11' 6" N
Longitude 128° 9' 25" W
Elevation 141 ft
Type Small Airport

Map

Weather

METAR
2014/09/23 08:14
CBBC 230814Z AUTO 26003KT 240V320 2 1/2SM BR BKN002 13/12 A2987 RMK SLP113
TAF
2014/09/23 03:00
TAF 
      AMD CBBC 230313Z 2303/2305 VRB03KT P6SM SCT050 OVC090 
      TEMPO 2303/2305 5SM -SHRA BR BKN020 PROB30 2303/2305 3SM -RA BR BKN008 
      RMK FCST BASED ON AUTO OBS. NXT FCST WILL BE ISSUED AT 231245Z

Runways

13/31 3700 ft / 75 ft

Outbound flights

Callsign Flying to Pilot ATD/STD ETA Aircraft

Inbound flights

Callsign Flying from Pilot ATD ETA Aircraft